Página principal
METAR-TAF:

METAR-TAF

Aeroportos :

Aeroporto Internacional de Volgogrado

Volgogrado, Rússia

latitude: 48-47N, longitude: 044-22E, altura: 145 m

Observação actual do tempo

O boletim foi feito há 19 minutos, às 09:30 UTC
Vento 10 kt de es-sudeste
Temperatura 18°C
Humidade 20%
Pressão 1030 hPa
Visibilidade 10 km ou mais
sem nuvens abaixo de 1500 metros e sem cumulonimbus

METAR: URWW 270930Z 12005MPS CAVOK 18/M05 Q1030 R06/010070 NOSIG

Hora: 12:49 (09:49 UTC)


TAF: em falta

Observações e previsões do tempo de mais de 4000 aeroportos (mensagens METAR e TAF).

As estações disponíveis são os pontos amarelos e vermelhos sobre o mapa.

Mova o rato sobre o mapa para ver o nome da estação.

Depois clique no ponto para visualizar as observações e previsões meteorológicas.

Para alterar o mapa : clique nos botões verdes com uma cruz preta para aumentar o zoom; no botão verde com uma pitada de zoom; ou nas setas verdes para mapas adjacentes.


METAR-TAF: